Clarkston, Michigan
Current Conditions -  °F | °C
As of 10:53 PM on Tuesday 21 Oct 2014 (Local Time) from KPTK Reporting Station
Overcast Overcast  
Wind Chill: 37°   Ceiling: 1900
Heat Index: 43°   Visibility: 10mi
Dew Point: 35°   Wind: 10mph
Humidity: 74%   Direction: 360°N
Pressure: 30.2"   Gusts: 20mph
Location:  42.74°N, 83.42°W
Report Text: KPTK 220253Z 36009G17KT 10SM OVC019 06/02 A3020 RMK AO2 SLP233 T00610017 51014
Loading
Personal Weather Stations






























Interactive Weather Map
Tropical Storm Tracking
New forecast layout! Learn more

10-Day Weather Forecast

Advertisements
Track Severe Weather on mobile